Time;durP1;ratioP1;P1;durP2;ratioP2;P2;SDS_P1;SDS_P2;PMS_P1;PMS_P2;Temp;Humidity;BMP_temperature;BMP_pressure;BME280_temperature;BME280_humidity;BME280_pressure;Samples;Min_cycle;Max_cycle;Signal;HPM_P1;HPM_P2
2024/04/15 00:00:05;;;;;;;4.57;1.30;;;;;;;12.76;65.88;100702.63;5425817;26;19997;-65
2024/04/15 00:02:37;;;;;;;1.83;0.65;;;;;;;12.78;65.99;100700.34;5455012;26;20054;-69
2024/04/15 00:05:03;;;;;;;4.60;0.70;;;;;;;12.69;66.21;100709.53;5426550;26;20455;-66
2024/04/15 00:07:29;;;;;;;1.23;0.55;;;;;;;12.67;66.79;100703.72;5419221;26;19994;-65
2024/04/15 00:09:54;;;;;;;3.50;1.08;;;;;;;12.69;67.01;100712.25;5450805;26;19994;-65
2024/04/15 00:12:20;;;;;;;2.17;0.50;;;;;;;12.67;66.80;100706.44;5417383;26;20005;-65
2024/04/15 00:14:46;;;;;;;3.90;0.70;;;;;;;12.70;67.07;100699.50;5452633;26;19993;-67
2024/04/15 00:17:11;;;;;;;4.45;0.70;;;;;;;12.68;67.82;100707.97;5456329;26;20010;-65
2024/04/15 00:19:38;;;;;;;0.73;0.65;;;;;;;12.70;67.55;100707.59;5420284;26;20467;-66
2024/04/15 00:22:03;;;;;;;3.63;0.80;;;;;;;12.76;66.49;100689.91;5451805;26;20021;-65
2024/04/15 00:24:29;;;;;;;3.15;0.90;;;;;;;12.66;67.16;100685.16;5424100;26;20470;-65
2024/04/15 00:26:54;;;;;;;2.97;1.55;;;;;;;12.68;66.56;100683.66;5420328;26;19995;-66
2024/04/15 00:29:20;;;;;;;2.80;0.50;;;;;;;12.61;67.21;100674.69;5421886;26;19998;-65
2024/04/15 00:31:45;;;;;;;1.05;0.68;;;;;;;12.48;68.33;100673.38;5478879;26;20363;-64
2024/04/15 00:34:11;;;;;;;1.95;0.80;;;;;;;12.53;68.30;100662.22;5426660;26;20009;-66
2024/04/15 00:36:36;;;;;;;1.17;0.70;;;;;;;12.52;68.62;100663.38;5420206;26;19994;-65
2024/04/15 00:39:02;;;;;;;0.85;0.60;;;;;;;12.48;68.77;100657.94;5454864;26;19997;-66
2024/04/15 00:41:28;;;;;;;2.83;0.80;;;;;;;12.57;67.86;100657.66;5450139;26;20006;-66
2024/04/15 00:43:53;;;;;;;6.15;0.88;;;;;;;12.44;69.63;100667.13;5459724;26;20009;-64
2024/04/15 00:46:19;;;;;;;1.58;0.98;;;;;;;12.43;69.98;100663.66;5426628;26;20001;-66
2024/04/15 00:48:45;;;;;;;4.00;0.73;;;;;;;12.41;70.16;100662.44;5459938;26;20526;-67
2024/04/15 00:51:13;;;;;;;2.85;0.73;;;;;;;12.41;69.95;100657.06;5480621;26;20012;-65
2024/04/15 00:53:41;;;;;;;6.07;0.75;;;;;;;12.39;69.76;100645.84;5452493;26;20005;-65
2024/04/15 00:56:07;;;;;;;4.38;0.70;;;;;;;12.38;70.55;100649.69;5452992;26;20481;-66
2024/04/15 00:58:33;;;;;;;2.70;0.60;;;;;;;12.44;69.58;100649.03;5451520;26;20015;-66
2024/04/15 01:01:01;;;;;;;6.60;0.70;;;;;;;12.36;70.26;100644.66;5449048;26;20072;-65
2024/04/15 01:03:27;;;;;;;7.78;0.77;;;;;;;12.34;70.33;100638.84;5452842;26;19998;-64
2024/04/15 01:05:52;;;;;;;4.18;0.57;;;;;;;12.41;69.43;100617.31;5452809;26;20001;-66
2024/04/15 01:08:18;;;;;;;1.27;0.93;;;;;;;12.33;71.01;100618.38;5421903;26;20026;-64
2024/04/15 01:10:44;;;;;;;5.28;1.15;;;;;;;12.35;70.33;100618.78;5481530;26;20067;-65
2024/04/15 01:13:09;;;;;;;2.08;1.10;;;;;;;12.25;70.63;100597.06;5415225;26;20009;-66
2024/04/15 01:15:35;;;;;;;5.53;1.13;;;;;;;12.23;71.43;100599.34;5456201;26;20017;-64
2024/04/15 01:18:01;;;;;;;3.20;1.67;;;;;;;12.24;71.37;100599.00;5447604;26;19995;-65
2024/04/15 01:20:28;;;;;;;3.20;0.93;;;;;;;12.20;71.81;100595.47;5480189;26;20473;-64
2024/04/15 01:23:12;;;;;;;1.95;0.70;;;;;;;12.28;71.00;100599.03;5466337;26;20010;-66
2024/04/15 01:25:38;;;;;;;5.05;0.75;;;;;;;12.18;71.46;100584.25;5448219;26;20022;-66
2024/04/15 01:28:03;;;;;;;1.77;0.75;;;;;;;12.14;71.45;100586.13;5474522;26;20468;-65
2024/04/15 01:30:29;;;;;;;2.65;0.40;;;;;;;12.18;70.96;100573.44;5425549;26;20009;-66
2024/04/15 01:32:55;;;;;;;2.67;1.35;;;;;;;12.09;71.59;100572.19;5473015;26;20009;-65
2024/04/15 01:35:20;;;;;;;1.20;0.70;;;;;;;12.04;72.24;100573.25;5422118;26;19995;-65
2024/04/15 01:37:48;;;;;;;0.90;0.47;;;;;;;12.02;72.58;100574.78;5443981;26;20351;-65
2024/04/15 01:40:14;;;;;;;8.45;0.73;;;;;;;11.95;72.83;100561.97;5445816;26;19994;-65
2024/04/15 01:42:39;;;;;;;1.27;0.60;;;;;;;11.88;72.34;100553.78;5455778;26;20013;-65
2024/04/15 01:45:05;;;;;;;7.78;0.73;;;;;;;11.84;72.35;100554.88;5484001;26;20002;-64
2024/04/15 01:47:31;;;;;;;3.78;0.77;;;;;;;11.75;72.70;100538.94;5422919;26;19998;-66
2024/04/15 01:49:57;;;;;;;2.03;0.90;;;;;;;11.71;73.09;100535.47;5422991;26;20005;-65
2024/04/15 01:52:22;;;;;;;6.22;1.02;;;;;;;11.64;73.42;100538.00;5453306;26;20007;-66
2024/04/15 01:54:48;;;;;;;0.43;0.43;;;;;;;11.54;73.40;100535.94;5425343;26;20006;-65
2024/04/15 01:57:13;;;;;;;5.32;1.23;;;;;;;11.50;73.64;100535.09;5450088;26;20022;-66
2024/04/15 01:59:39;;;;;;;2.80;0.77;;;;;;;11.43;72.94;100526.91;5446106;26;19998;-66
2024/04/15 02:02:04;;;;;;;3.42;0.70;;;;;;;11.26;73.62;100525.53;5455473;26;19994;-65
2024/04/15 02:04:29;;;;;;;4.07;1.00;;;;;;;11.27;73.52;100520.88;5450749;26;20355;-65
2024/04/15 02:06:58;;;;;;;3.97;0.75;;;;;;;11.21;73.44;100512.34;5462432;26;20477;-65
2024/04/15 02:09:23;;;;;;;0.95;0.60;;;;;;;11.12;74.05;100521.81;5424596;26;20005;-65
2024/04/15 02:11:49;;;;;;;11.52;0.73;;;;;;;11.10;74.53;100516.00;5453792;26;20324;-64
2024/04/15 02:14:14;;;;;;;1.63;1.23;;;;;;;11.06;74.58;100520.56;5425393;26;20579;-65
2024/04/15 02:16:39;;;;;;;0.60;0.60;;;;;;;11.05;74.34;100527.88;5454357;26;20006;-68
2024/04/15 02:19:05;;;;;;;1.50;0.80;;;;;;;11.02;74.57;100525.13;5421427;26;20006;-65
2024/04/15 02:21:30;;;;;;;1.30;0.70;;;;;;;10.94;74.44;100523.47;5473664;26;20047;-65
2024/04/15 02:23:56;;;;;;;1.20;0.70;;;;;;;10.86;75.18;100528.72;5471795;26;19999;-65
2024/04/15 02:26:22;;;;;;;1.17;0.60;;;;;;;10.86;74.82;100536.78;5460610;26;20355;-66
2024/04/15 02:28:47;;;;;;;4.95;0.70;;;;;;;10.73;75.69;100521.16;5420864;26;20010;-64
2024/04/15 02:31:12;;;;;;;13.25;1.05;;;;;;;10.75;75.06;100529.66;5451935;26;19990;-66
2024/04/15 02:33:38;;;;;;;5.80;1.42;;;;;;;10.69;76.04;100525.72;5478531;26;19994;-66
2024/04/15 02:36:03;;;;;;;1.08;0.60;;;;;;;10.65;76.24;100522.19;5454197;26;20031;-65
2024/04/15 02:38:29;;;;;;;2.22;0.80;;;;;;;10.73;76.20;100519.25;5423791;26;20001;-65
2024/04/15 02:40:55;;;;;;;6.15;0.80;;;;;;;10.72;76.35;100517.69;5449859;26;19998;-65
2024/04/15 02:43:20;;;;;;;3.20;0.63;;;;;;;10.69;76.63;100515.72;5440901;26;20010;-65
2024/04/15 02:45:47;;;;;;;3.35;0.82;;;;;;;10.72;76.02;100506.16;5453312;26;20473;-65
2024/04/15 02:48:16;;;;;;;5.00;0.70;;;;;;;10.74;76.45;100503.88;5431140;26;20416;-64
2024/04/15 02:50:42;;;;;;;7.95;1.23;;;;;;;10.75;76.09;100502.75;5422842;26;20099;-66
2024/04/15 02:53:07;;;;;;;2.05;0.75;;;;;;;10.74;76.28;100499.25;5415379;26;20021;-65
2024/04/15 02:55:33;;;;;;;1.88;0.70;;;;;;;10.80;75.84;100491.69;5429784;26;20038;-65
2024/04/15 02:57:58;;;;;;;3.85;0.52;;;;;;;10.78;76.43;100491.25;5452381;26;20006;-65
2024/04/15 03:00:24;;;;;;;1.63;0.65;;;;;;;10.78;76.08;100488.56;5471955;26;20532;-66
2024/04/15 03:02:53;;;;;;;1.15;0.85;;;;;;;10.71;76.08;100488.44;5440197;26;20047;-66
2024/04/15 03:05:20;;;;;;;2.33;1.00;;;;;;;10.68;76.18;100481.09;5446883;26;19990;-64
2024/04/15 03:07:49;;;;;;;2.92;0.70;;;;;;;10.66;76.17;100472.59;5446516;26;19995;-65
2024/04/15 03:10:14;;;;;;;5.82;0.50;;;;;;;10.58;75.89;100471.69;5452672;26;20068;-65
2024/04/15 03:12:40;;;;;;;1.60;1.00;;;;;;;10.45;76.54;100459.50;5479432;26;20010;-65
2024/04/15 03:15:05;;;;;;;2.05;1.00;;;;;;;10.50;76.67;100455.75;5477578;26;20022;-64
2024/04/15 03:17:31;;;;;;;5.15;0.90;;;;;;;10.48;76.34;100453.44;5482297;26;20074;-65
2024/04/15 03:19:56;;;;;;;1.52;0.70;;;;;;;10.47;76.31;100446.47;5424672;26;20460;-64
2024/04/15 03:22:22;;;;;;;2.78;0.68;;;;;;;10.43;76.44;100445.63;5452053;26;19998;-66
2024/04/15 03:24:48;;;;;;;0.90;0.80;;;;;;;10.40;76.59;100443.66;5448907;26;20006;-64
2024/04/15 03:27:14;;;;;;;4.03;0.85;;;;;;;10.39;76.49;100444.03;5422584;26;20003;-65
2024/04/15 03:29:39;;;;;;;2.22;0.52;;;;;;;10.36;76.51;100444.72;5423095;26;21752;-65
2024/04/15 03:32:05;;;;;;;0.52;0.43;;;;;;;10.34;76.51;100445.09;5456884;26;20006;-65
2024/04/15 03:34:31;;;;;;;2.10;0.80;;;;;;;10.33;76.33;100443.56;5420444;26;20447;-64
2024/04/15 03:36:56;;;;;;;2.80;1.42;;;;;;;10.32;76.57;100435.81;5423811;26;20071;-67
2024/04/15 03:39:22;;;;;;;2.50;1.85;;;;;;;10.23;77.02;100436.06;5421347;26;19994;-64
2024/04/15 03:41:47;;;;;;;2.10;0.82;;;;;;;10.27;76.39;100433.44;5421426;26;20428;-65
2024/04/15 03:44:13;;;;;;;8.45;1.05;;;;;;;10.21;76.50;100429.47;5468863;26;20005;-67
2024/04/15 03:46:38;;;;;;;1.25;0.70;;;;;;;10.19;76.78;100423.69;5470909;26;20034;-63
2024/04/15 03:49:04;;;;;;;1.92;0.95;;;;;;;10.18;76.13;100422.88;5436261;26;20017;-64
2024/04/15 03:51:30;;;;;;;1.48;0.93;;;;;;;10.18;76.06;100424.81;5417752;26;20071;-65
2024/04/15 03:53:57;;;;;;;1.90;1.35;;;;;;;10.13;76.83;100415.13;5426500;26;19998;-65
2024/04/15 03:56:23;;;;;;;1.08;0.85;;;;;;;10.08;76.75;100417.31;5457985;26;20345;-64
2024/04/15 03:58:48;;;;;;;3.45;1.40;;;;;;;10.03;77.11;100412.97;5484103;26;20013;-64
2024/04/15 04:01:14;;;;;;;2.10;0.98;;;;;;;10.03;76.64;100412.97;5424937;26;20002;-67
2024/04/15 04:03:40;;;;;;;2.83;1.10;;;;;;;10.02;76.45;100406.06;5441272;26;20002;-64
2024/04/15 04:06:06;;;;;;;7.05;0.90;;;;;;;9.96;77.02;100410.16;5456934;26;19994;-65
2024/04/15 04:08:31;;;;;;;3.85;1.08;;;;;;;9.95;76.81;100401.31;5415229;26;19994;-64
2024/04/15 04:11:04;;;;;;;1.80;0.68;;;;;;;9.95;76.96;100389.78;5418316;26;19999;-64
2024/04/15 04:13:32;;;;;;;2.42;0.60;;;;;;;10.00;76.55;100389.50;5429888;26;19998;-65
2024/04/15 04:15:59;;;;;;;0.60;0.60;;;;;;;9.97;76.69;100395.56;5453724;26;20022;-64
2024/04/15 04:18:28;;;;;;;4.18;0.63;;;;;;;9.93;76.47;100387.44;5427291;26;20010;-64
2024/04/15 04:20:54;;;;;;;2.42;0.82;;;;;;;9.88;76.32;100381.59;5477112;26;20009;-64
2024/04/15 04:23:19;;;;;;;4.32;1.08;;;;;;;9.89;76.57;100383.16;5421952;26;19999;-64
2024/04/15 04:25:46;;;;;;;3.58;1.02;;;;;;;9.89;77.73;100385.84;5479814;26;20002;-64
2024/04/15 04:28:13;;;;;;;4.55;1.00;;;;;;;9.93;76.87;100370.53;5461554;26;20335;-65
2024/04/15 04:30:38;;;;;;;3.17;0.70;;;;;;;9.86;76.46;100373.09;5424201;26;19998;-65
2024/04/15 04:33:04;;;;;;;2.00;1.35;;;;;;;9.83;77.40;100371.88;5434548;26;20010;-64
2024/04/15 04:35:39;;;;;;;1.13;0.80;;;;;;;9.83;77.33;100357.69;5411843;26;20434;-64
2024/04/15 04:38:05;;;;;;;0.40;0.40;;;;;;;9.81;77.64;100363.38;5474048;26;19998;-64
2024/04/15 04:40:31;;;;;;;1.08;0.63;;;;;;;9.86;78.01;100348.88;5421853;26;20055;-66
2024/04/15 04:42:56;;;;;;;1.38;0.55;;;;;;;9.84;77.79;100343.88;5437285;26;20006;-65
2024/04/15 04:45:22;;;;;;;1.73;0.63;;;;;;;9.87;77.79;100342.38;5465880;26;20015;-65
2024/04/15 04:47:48;;;;;;;1.05;0.98;;;;;;;9.85;78.39;100336.59;5423517;26;20010;-65
2024/04/15 04:50:13;;;;;;;3.40;1.00;;;;;;;9.95;77.37;100342.13;5441078;26;20002;-65
2024/04/15 04:52:39;;;;;;;3.58;1.15;;;;;;;9.92;77.46;100342.09;5442893;26;20002;-65
2024/04/15 04:55:05;;;;;;;1.48;0.55;;;;;;;9.93;77.89;100346.31;5423900;26;20008;-65
2024/04/15 04:57:30;;;;;;;16.23;1.27;;;;;;;9.97;77.93;100345.25;5415964;26;20040;-64
2024/04/15 04:59:56;;;;;;;2.95;0.90;;;;;;;10.01;77.69;100339.94;5449285;26;19998;-65
2024/04/15 05:02:22;;;;;;;0.50;0.50;;;;;;;10.07;77.13;100325.03;5450588;26;20531;-65
2024/04/15 05:04:48;;;;;;;6.47;0.90;;;;;;;10.11;76.73;100309.00;5423958;26;20010;-65
2024/04/15 05:07:13;;;;;;;3.83;1.17;;;;;;;10.12;76.57;100302.50;5463946;26;19999;-64
2024/04/15 05:09:42;;;;;;;1.23;0.75;;;;;;;10.17;76.14;100292.19;5439084;26;19999;-64
2024/04/15 05:12:07;;;;;;;5.35;0.98;;;;;;;10.14;76.81;100303.69;5414464;26;19994;-64
2024/04/15 05:14:33;;;;;;;0.82;0.80;;;;;;;10.19;76.93;100316.03;5436310;26;20014;-65
2024/04/15 05:16:59;;;;;;;7.43;1.05;;;;;;;10.23;77.18;100317.66;5452449;26;20017;-64
2024/04/15 05:19:26;;;;;;;1.20;0.80;;;;;;;10.39;76.02;100320.22;5474165;26;19998;-64
2024/04/15 05:21:51;;;;;;;5.53;0.85;;;;;;;10.41;76.29;100315.25;5426590;26;20002;-65
2024/04/15 05:24:17;;;;;;;1.02;0.60;;;;;;;10.45;76.71;100313.38;5442198;26;20468;-65
2024/04/15 05:26:43;;;;;;;2.20;0.90;;;;;;;10.51;75.83;100312.69;5480656;26;20082;-65
2024/04/15 05:29:08;;;;;;;0.43;0.43;;;;;;;10.57;76.28;100311.25;5441216;26;19994;-65
2024/04/15 05:31:33;;;;;;;4.95;0.77;;;;;;;10.67;76.24;100301.78;5437903;26;20782;-65
2024/04/15 05:33:59;;;;;;;3.08;1.08;;;;;;;10.73;76.46;100308.41;5444378;26;20013;-67
2024/04/15 05:36:24;;;;;;;4.32;1.00;;;;;;;10.80;76.25;100295.81;5444533;26;20006;-65
2024/04/15 05:38:50;;;;;;;1.13;0.65;;;;;;;10.77;76.83;100295.75;5474006;26;20353;-64
2024/04/15 05:41:15;;;;;;;1.75;0.65;;;;;;;10.87;76.92;100295.91;5460042;26;19994;-64
2024/04/15 05:43:41;;;;;;;8.70;0.90;;;;;;;11.00;75.62;100296.47;5472515;26;20002;-66
2024/04/15 05:46:06;;;;;;;0.70;0.70;;;;;;;11.06;74.57;100291.50;5476967;26;19998;-64
2024/04/15 05:48:32;;;;;;;2.63;1.20;;;;;;;11.11;74.06;100296.59;5477373;26;19998;-65
2024/04/15 05:50:57;;;;;;;4.20;1.08;;;;;;;11.09;74.69;100296.19;5471265;26;20659;-65
2024/04/15 05:53:22;;;;;;;8.68;1.17;;;;;;;11.10;75.78;100290.44;5467872;26;20042;-65
2024/04/15 05:55:48;;;;;;;2.45;1.02;;;;;;;11.34;74.38;100289.91;5464307;26;20089;-65
2024/04/15 05:58:13;;;;;;;1.98;1.30;;;;;;;11.43;73.15;100287.72;5459608;26;20463;-65
2024/04/15 06:00:39;;;;;;;0.65;0.65;;;;;;;11.57;71.92;100287.09;5454952;26;20009;-65
2024/04/15 06:03:05;;;;;;;3.95;0.80;;;;;;;11.66;71.29;100284.91;5480295;26;19994;-64
2024/04/15 06:05:32;;;;;;;8.15;0.90;;;;;;;11.66;70.70;100277.59;5473326;26;20002;-67
2024/04/15 06:08:00;;;;;;;7.78;1.15;;;;;;;11.58;70.95;100267.06;5461738;26;20454;-65
2024/04/15 06:10:26;;;;;;;1.17;0.50;;;;;;;11.66;70.20;100268.72;5471108;26;20142;-65
2024/04/15 06:12:51;;;;;;;6.10;1.02;;;;;;;11.72;70.53;100259.16;5469268;26;20026;-65
2024/04/15 06:15:17;;;;;;;3.85;0.98;;;;;;;11.70;71.73;100264.91;5450980;26;20018;-63
2024/04/15 06:17:42;;;;;;;0.63;0.50;;;;;;;11.79;72.18;100251.09;5452310;26;20053;-66
2024/04/15 06:20:08;;;;;;;0.82;0.60;;;;;;;11.98;72.20;100261.66;5438432;26;20513;-64
2024/04/15 06:22:33;;;;;;;2.08;0.82;;;;;;;12.17;71.26;100233.69;5429248;26;20011;-65
2024/04/15 06:24:58;;;;;;;2.03;0.80;;;;;;;12.32;68.58;100236.09;5452130;26;20359;-66
2024/04/15 06:27:24;;;;;;;0.50;0.50;;;;;;;12.43;66.05;100226.13;5470819;26;20476;-64
2024/04/15 06:29:49;;;;;;;5.38;0.50;;;;;;;12.43;66.18;100223.44;5486154;26;20009;-64
2024/04/15 06:32:15;;;;;;;1.27;0.80;;;;;;;12.53;66.28;100224.63;5445855;26;19998;-65
2024/04/15 06:34:40;;;;;;;3.97;0.95;;;;;;;12.63;66.50;100219.31;5477311;26;20391;-65
2024/04/15 06:37:06;;;;;;;3.85;0.90;;;;;;;12.68;65.78;100215.44;5446888;26;20002;-65
2024/04/15 06:39:31;;;;;;;2.22;0.98;;;;;;;12.83;66.18;100219.00;5441241;26;20064;-69
2024/04/15 06:41:57;;;;;;;4.55;0.70;;;;;;;12.95;65.06;100214.00;5450718;26;19994;-64
2024/04/15 06:44:22;;;;;;;2.60;0.80;;;;;;;12.97;66.23;100205.53;5480258;26;20005;-64
2024/04/15 06:46:47;;;;;;;2.38;0.50;;;;;;;13.32;66.06;100200.22;5444097;26;20013;-65
2024/04/15 06:49:13;;;;;;;2.92;0.90;;;;;;;13.45;62.97;100196.78;5482952;26;20002;-64
2024/04/15 06:51:39;;;;;;;3.00;1.40;;;;;;;13.52;63.53;100196.00;5468400;26;20494;-64
2024/04/15 06:54:06;;;;;;;0.57;0.47;;;;;;;13.56;63.27;100188.69;5471177;26;19998;-65
2024/04/15 06:56:32;;;;;;;0.80;0.47;;;;;;;13.60;63.03;100173.22;5477854;26;20471;-64
2024/04/15 06:58:58;;;;;;;0.90;0.68;;;;;;;13.52;64.22;100168.97;5468912;26;19994;-65
2024/04/15 07:01:23;;;;;;;0.88;0.60;;;;;;;13.61;63.84;100161.22;5451053;26;19994;-66
2024/04/15 07:03:48;;;;;;;2.95;0.95;;;;;;;13.68;65.75;100169.34;5439153;26;20071;-67
2024/04/15 07:06:14;;;;;;;3.05;1.05;;;;;;;13.95;64.49;100158.88;5436539;26;20006;-66
2024/04/15 07:08:40;;;;;;;11.60;0.95;;;;;;;14.04;64.52;100154.63;5478245;26;19994;-66
2024/04/15 07:11:05;;;;;;;2.03;1.15;;;;;;;14.10;64.11;100146.88;5477141;26;19994;-64
2024/04/15 07:13:31;;;;;;;2.97;0.75;;;;;;;14.25;64.50;100141.03;5445188;26;20022;-65
2024/04/15 07:15:57;;;;;;;1.85;1.00;;;;;;;14.41;63.49;100141.41;5477032;26;20003;-65
2024/04/15 07:18:23;;;;;;;0.50;0.50;;;;;;;14.51;61.04;100136.31;5456862;26;20006;-66
2024/04/15 07:20:48;;;;;;;3.40;0.50;;;;;;;14.34;62.72;100141.41;5417803;26;20005;-64
2024/04/15 07:23:14;;;;;;;1.50;0.68;;;;;;;14.41;61.91;100138.69;5423650;26;20328;-66
2024/04/15 07:25:39;;;;;;;2.03;0.95;;;;;;;14.33;61.92;100133.66;5472559;26;20009;-66
2024/04/15 07:28:05;;;;;;;6.18;0.70;;;;;;;14.16;62.57;100137.97;5431299;26;19990;-66
2024/04/15 07:30:30;;;;;;;3.05;0.90;;;;;;;14.38;62.04;100136.75;5478450;26;20336;-66
2024/04/15 07:32:56;;;;;;;1.65;0.45;;;;;;;14.44;62.53;100126.28;5466125;26;20341;-67
2024/04/15 07:35:21;;;;;;;4.82;1.10;;;;;;;14.57;59.76;100121.97;5449490;26;21382;-66
2024/04/15 07:37:47;;;;;;;1.88;0.70;;;;;;;14.55;60.86;100121.59;5419580;26;20470;-66
2024/04/15 07:40:13;;;;;;;6.07;0.88;;;;;;;14.72;60.72;100103.69;5450589;26;19994;-66
2024/04/15 07:42:41;;;;;;;0.60;0.38;;;;;;;14.88;59.87;100106.69;5477521;26;20006;-66
2024/04/15 07:45:08;;;;;;;1.55;0.60;;;;;;;14.94;59.72;100108.56;5464483;26;19991;-67
2024/04/15 07:47:33;;;;;;;0.77;0.65;;;;;;;14.82;58.88;100105.56;5436293;26;20022;-65
2024/04/15 07:49:59;;;;;;;2.38;0.77;;;;;;;14.33;60.25;100096.53;5465343;26;20030;-67
2024/04/15 07:52:25;;;;;;;2.58;0.80;;;;;;;14.28;60.72;100096.16;5460804;26;20014;-64
2024/04/15 07:54:51;;;;;;;2.17;0.60;;;;;;;14.20;61.93;100094.63;5437919;26;20519;-66
2024/04/15 07:57:17;;;;;;;1.20;0.45;;;;;;;14.09;62.24;100086.50;5439961;26;20062;-65
2024/04/15 07:59:43;;;;;;;3.47;0.70;;;;;;;13.93;63.15;100091.59;5441321;26;20018;-66
2024/04/15 08:02:09;;;;;;;0.73;0.70;;;;;;;13.74;63.97;100080.44;5460330;26;20553;-66
2024/04/15 08:04:35;;;;;;;5.25;0.88;;;;;;;13.65;64.72;100094.34;5443521;26;20116;-66
2024/04/15 08:07:00;;;;;;;3.63;0.73;;;;;;;13.70;64.62;100085.06;5443115;26;19998;-65
2024/04/15 08:09:27;;;;;;;4.20;1.20;;;;;;;13.87;64.03;100085.03;5462636;26;20352;-65
2024/04/15 08:11:53;;;;;;;0.77;0.40;;;;;;;13.76;65.46;100072.69;5474771;26;20009;-65
2024/04/15 08:14:21;;;;;;;4.07;1.35;;;;;;;13.61;65.58;100063.81;5433838;26;20064;-66
2024/04/15 08:16:46;;;;;;;0.73;0.73;;;;;;;13.62;65.67;100062.66;5449480;26;20134;-65
2024/04/15 08:19:12;;;;;;;0.35;0.30;;;;;;;13.71;66.69;100057.63;5467089;26;20039;-66
2024/04/15 08:21:37;;;;;;;2.28;0.70;;;;;;;14.10;66.18;100047.44;5431464;26;20006;-66
2024/04/15 08:24:03;;;;;;;5.95;0.85;;;;;;;14.54;64.74;100046.88;5441269;26;20067;-66
2024/04/15 08:26:28;;;;;;;1.40;0.60;;;;;;;14.76;62.83;100050.22;5447078;26;20079;-66
2024/04/15 08:28:54;;;;;;;0.93;0.93;;;;;;;14.95;61.71;100044.28;5434974;26;19994;-65
2024/04/15 08:31:19;;;;;;;5.32;0.80;;;;;;;14.98;60.00;100038.06;5444458;26;20025;-67
2024/04/15 08:33:44;;;;;;;1.17;0.43;;;;;;;15.07;60.13;100035.66;5436686;26;20003;-66
2024/04/15 08:36:12;;;;;;;0.45;0.40;;;;;;;15.16;58.95;100035.97;5427227;26;20005;-65
2024/04/15 08:38:40;;;;;;;1.13;0.45;;;;;;;15.27;59.14;100028.53;5439916;26;20009;-67
2024/04/15 08:41:11;;;;;;;1.55;0.63;;;;;;;15.39;58.51;100031.50;5477145;26;19994;-65
2024/04/15 08:43:38;;;;;;;3.30;1.00;;;;;;;15.38;58.65;100021.06;5461516;26;20087;-65
2024/04/15 08:46:04;;;;;;;0.88;0.82;;;;;;;15.77;57.16;100010.59;5466151;26;20543;-65
2024/04/15 08:48:32;;;;;;;7.53;1.10;;;;;;;15.70;57.57;100002.50;5464864;26;20539;-65
2024/04/15 08:51:00;;;;;;;5.50;1.00;;;;;;;15.95;58.09;99994.09;5465565;26;20022;-65
2024/04/15 08:53:26;;;;;;;6.85;0.93;;;;;;;16.39;57.37;99987.69;5425089;26;20074;-64
2024/04/15 08:55:51;;;;;;;3.03;1.30;;;;;;;16.75;55.66;99986.00;5473714;26;20472;-65
2024/04/15 08:58:17;;;;;;;2.92;1.30;;;;;;;16.98;58.23;99980.56;5431110;26;19994;-65
2024/04/15 09:00:44;;;;;;;2.78;1.08;;;;;;;17.10;54.85;99977.25;5469562;26;20705;-66
2024/04/15 09:03:10;;;;;;;4.20;1.30;;;;;;;17.14;54.43;99961.66;5466736;26;19998;-64
2024/04/15 09:05:37;;;;;;;2.00;1.40;;;;;;;17.19;54.66;99961.16;5441037;26;19994;-65
2024/04/15 09:08:04;;;;;;;2.40;1.30;;;;;;;16.99;54.88;99947.50;5445727;26;20090;-65
2024/04/15 09:10:29;;;;;;;10.80;1.73;;;;;;;16.89;55.86;99953.13;5438200;26;20006;-64
2024/04/15 09:12:56;;;;;;;3.60;1.50;;;;;;;17.17;56.25;99953.41;5469039;26;20025;-65
2024/04/15 09:15:27;;;;;;;2.95;1.45;;;;;;;17.71;56.05;99956.69;5472006;26;20487;-64
2024/04/15 09:17:53;;;;;;;4.93;1.25;;;;;;;17.99;53.68;99961.56;5421137;26;20757;-64
2024/04/15 09:20:21;;;;;;;3.83;1.58;;;;;;;18.37;53.17;99958.41;5445705;26;20026;-64
2024/04/15 09:22:47;;;;;;;4.30;1.40;;;;;;;18.80;52.53;99958.94;5438049;26;19998;-64
2024/04/15 09:25:13;;;;;;;4.68;1.35;;;;;;;18.98;51.98;99962.03;5471280;26;19998;-65
2024/04/15 09:27:39;;;;;;;6.82;1.73;;;;;;;18.91;50.65;99964.94;5434099;26;20017;-65
2024/04/15 09:30:05;;;;;;;2.15;1.38;;;;;;;19.03;50.44;99958.75;5413931;26;20006;-64
2024/04/15 09:32:32;;;;;;;2.80;1.13;;;;;;;18.97;50.08;99970.63;5466218;26;20036;-64
2024/04/15 09:35:03;;;;;;;2.13;1.17;;;;;;;18.84;50.73;99956.91;5436068;26;20050;-68
2024/04/15 09:37:31;;;;;;;4.80;1.20;;;;;;;18.51;50.59;99947.97;5471284;26;20005;-65
2024/04/15 09:39:57;;;;;;;2.17;1.10;;;;;;;18.50;49.50;99951.13;5488938;26;19998;-65
2024/04/15 09:42:23;;;;;;;3.58;1.13;;;;;;;18.14;48.26;99934.75;5440940;26;20021;-65
2024/04/15 09:44:49;;;;;;;2.17;1.00;;;;;;;17.92;48.05;99939.91;5440711;26;20013;-65
2024/04/15 09:47:16;;;;;;;2.30;1.00;;;;;;;17.87;49.12;99928.72;5477649;26;20002;-65
2024/04/15 09:49:42;;;;;;;6.72;1.17;;;;;;;18.13;48.53;99927.00;5416644;26;19998;-67
2024/04/15 09:52:17;;;;;;;2.03;1.05;;;;;;;18.35;48.46;99919.88;5423497;26;20545;-66
2024/04/15 09:54:45;;;;;;;2.42;0.88;;;;;;;18.61;48.03;99905.25;5469711;26;19998;-65
2024/04/15 09:57:18;;;;;;;1.70;0.75;;;;;;;18.82;46.65;99907.44;5465744;26;20474;-66
2024/04/15 09:59:45;;;;;;;1.40;0.60;;;;;;;19.04;47.34;99897.53;5438158;26;20114;-65
2024/04/15 10:02:42;;;;;;;1.75;0.70;;;;;;;19.33;46.34;99881.94;5464926;26;19999;-64
2024/04/15 10:05:24;;;;;;;1.63;1.15;;;;;;;19.35;44.13;99873.31;5472124;26;20006;-67
2024/04/15 10:07:53;;;;;;;2.10;0.80;;;;;;;18.89;45.06;99852.72;5462278;26;19998;-67
2024/04/15 10:10:20;;;;;;;4.30;0.90;;;;;;;18.44;45.21;99841.00;5424097;26;20041;-66
2024/04/15 10:12:49;;;;;;;3.47;0.82;;;;;;;18.49;45.50;99829.56;5474313;26;20002;-65
2024/04/15 10:15:16;;;;;;;0.57;0.40;;;;;;;18.50;45.13;99823.72;5443344;26;20002;-65
2024/04/15 10:17:42;;;;;;;1.90;0.80;;;;;;;18.65;47.34;99819.41;5471291;26;20010;-66
2024/04/15 10:20:11;;;;;;;2.72;0.88;;;;;;;19.02;45.47;99809.84;5450739;26;20017;-67
2024/04/15 10:22:38;;;;;;;2.83;0.75;;;;;;;19.35;43.12;99799.56;5451402;26;19998;-67
2024/04/15 10:25:07;;;;;;;1.63;0.50;;;;;;;19.84;43.95;99794.56;5480326;26;20078;-66
2024/04/15 10:27:32;;;;;;;2.22;0.90;;;;;;;19.93;41.16;99797.41;5451045;26;20006;-65
2024/04/15 10:29:58;;;;;;;1.20;0.50;;;;;;;19.66;41.48;99774.03;5475086;26;20553;-66
2024/04/15 10:32:26;;;;;;;1.80;1.13;;;;;;;19.47;41.57;99771.50;5478478;26;20003;-65
2024/04/15 10:34:55;;;;;;;1.42;0.47;;;;;;;19.52;42.23;99757.28;5434962;26;20009;-66
2024/04/15 10:37:28;;;;;;;4.57;0.55;;;;;;;19.70;41.60;99757.53;5446950;26;20444;-66
2024/04/15 10:40:00;;;;;;;3.35;0.65;;;;;;;19.95;41.13;99751.25;5469357;26;19999;-65
2024/04/15 10:42:26;;;;;;;1.17;0.45;;;;;;;19.98;40.71;99751.13;5421647;26;20017;-66
2024/04/15 10:44:52;;;;;;;0.63;0.55;;;;;;;19.71;40.16;99754.34;5431966;26;20378;-64
2024/04/15 10:47:17;;;;;;;2.42;0.50;;;;;;;19.61;39.93;99752.69;5473791;26;20350;-64
2024/04/15 10:49:43;;;;;;;3.00;0.60;;;;;;;19.45;41.26;99746.59;5467202;26;20072;-66
2024/04/15 10:52:08;;;;;;;1.95;1.05;;;;;;;19.29;40.06;99739.25;5474679;26;20009;-65
2024/04/15 10:54:33;;;;;;;4.28;0.65;;;;;;;19.09;41.57;99730.47;5477289;26;20029;-66
2024/04/15 10:57:00;;;;;;;1.63;0.50;;;;;;;19.15;41.71;99726.00;5469730;26;20013;-66
2024/04/15 10:59:25;;;;;;;1.17;0.73;;;;;;;19.45;42.37;99719.28;5466924;26;20006;-66
2024/04/15 11:01:52;;;;;;;0.45;0.40;;;;;;;19.60;41.56;99710.22;5460406;26;20059;-65
2024/04/15 11:04:17;;;;;;;2.80;0.70;;;;;;;19.63;40.57;99714.00;5467627;26;20522;-65
2024/04/15 11:06:46;;;;;;;1.55;0.55;;;;;;;19.67;40.45;99693.56;5460647;26;20013;-65
2024/04/15 11:09:11;;;;;;;5.15;0.65;;;;;;;19.61;39.93;99691.81;5476263;26;19998;-67
2024/04/15 11:11:38;;;;;;;1.08;0.57;;;;;;;19.70;39.46;99691.94;5471578;26;20038;-66
2024/04/15 11:14:09;;;;;;;2.47;0.55;;;;;;;19.17;40.71;99679.91;5467280;26;19994;-65
2024/04/15 11:16:35;;;;;;;0.75;0.60;;;;;;;19.10;40.86;99677.41;5448162;26;20041;-65
2024/04/15 11:19:07;;;;;;;4.15;0.60;;;;;;;18.74;41.74;99676.91;5469673;26;20013;-65
2024/04/15 11:21:33;;;;;;;3.28;0.68;;;;;;;18.64;41.33;99667.09;5476885;26;19998;-65